ABQ weather

Albuquerque International Sunport
Albuquerque, New Mexico, United States

Public forecast

Using degrees Fahrenheit for public forecast. Weather courtesy of forecast.io.

METAR (pilot weather report)

Retrieved 2019/03/26 17:52 UTC (18 minutes ago):

KABQ 261752Z VRB03KT 10SM OVC300 17/M06 A3026 RMK AO2 SLP200 T01721061 10172 20050 58006

TAF (pilot weather forecast)

Retrieved 2019/03/26 18:22 UTC (0 seconds ago):

TAF KABQ 261720Z 2618/2718 15006KT P6SM BKN250 FM262100 17012G22KT P6SM BKN250 FM270300 13012G20KT P6SM VCSH SCT080 FM270800 17007KT P6SM VCSH BKN040 FM271200 VRB04KT P6SM BKN025